sensor_id;sensor_type;location;lat;lon;timestamp;pressure;altitude;pressure_sealevel;temperature;humidity
59168;BME280;44948;55.046;73.266;2022-08-19T00:00:19;100811.75;;;8.65;68.35
59168;BME280;44948;55.046;73.266;2022-08-19T00:02:04;100763.34;;;8.42;67.90
59168;BME280;44948;55.046;73.266;2022-08-19T00:03:48;100854.66;;;8.94;68.25
59168;BME280;44948;55.046;73.266;2022-08-19T00:05:31;100851.09;;;8.95;67.74
59168;BME280;44948;55.046;73.266;2022-08-19T00:07:13;100853.09;;;8.90;68.66
59168;BME280;44948;55.046;73.266;2022-08-19T00:08:57;100858.59;;;9.01;68.55
59168;BME280;44948;55.046;73.266;2022-08-19T00:10:43;100792.97;;;8.58;68.24
59168;BME280;44948;55.046;73.266;2022-08-19T00:12:25;100849.13;;;8.83;68.21
59168;BME280;44948;55.046;73.266;2022-08-19T00:14:09;100860.53;;;8.98;68.18
59168;BME280;44948;55.046;73.266;2022-08-19T00:15:52;100862.72;;;9.05;68.07
59168;BME280;44948;55.046;73.266;2022-08-19T00:17:34;100864.09;;;9.12;67.95
59168;BME280;44948;55.046;73.266;2022-08-19T00:19:16;100869.50;;;9.09;68.23
59168;BME280;44948;55.046;73.266;2022-08-19T00:20:59;100874.88;;;9.06;68.40
59168;BME280;44948;55.046;73.266;2022-08-19T00:22:41;100771.75;;;8.47;68.44
59168;BME280;44948;55.046;73.266;2022-08-19T00:24:24;100870.84;;;9.16;68.36
59168;BME280;44948;55.046;73.266;2022-08-19T00:26:10;100873.47;;;9.16;67.97
59168;BME280;44948;55.046;73.266;2022-08-19T00:27:54;100862.31;;;9.13;67.92
59168;BME280;44948;55.046;73.266;2022-08-19T00:29:36;100853.03;;;9.07;68.19
59168;BME280;44948;55.046;73.266;2022-08-19T00:31:22;100871.69;;;9.17;68.10
59168;BME280;44948;55.046;73.266;2022-08-19T00:33:07;100853.63;;;9.12;67.62
59168;BME280;44948;55.046;73.266;2022-08-19T00:34:49;100849.25;;;9.13;67.77
59168;BME280;44948;55.046;73.266;2022-08-19T00:36:37;100856.44;;;9.25;67.45
59168;BME280;44948;55.046;73.266;2022-08-19T00:38:19;100863.47;;;9.24;67.48
59168;BME280;44948;55.046;73.266;2022-08-19T00:40:06;100834.13;;;9.02;67.58
59168;BME280;44948;55.046;73.266;2022-08-19T00:41:49;100869.53;;;9.25;67.68
59168;BME280;44948;55.046;73.266;2022-08-19T00:43:33;100868.00;;;9.21;68.01
59168;BME280;44948;55.046;73.266;2022-08-19T00:45:19;100878.03;;;9.13;68.09
59168;BME280;44948;55.046;73.266;2022-08-19T00:47:02;100878.88;;;9.13;68.42
59168;BME280;44948;55.046;73.266;2022-08-19T00:48:47;100772.59;;;8.48;67.87
59168;BME280;44948;55.046;73.266;2022-08-19T00:50:30;100859.97;;;9.08;67.67
59168;BME280;44948;55.046;73.266;2022-08-19T00:52:24;100878.47;;;9.21;67.45
59168;BME280;44948;55.046;73.266;2022-08-19T00:54:11;100860.81;;;9.09;67.86
59168;BME280;44948;55.046;73.266;2022-08-19T00:55:58;100870.19;;;9.13;68.12
59168;BME280;44948;55.046;73.266;2022-08-19T00:57:48;100837.25;;;8.93;68.58
59168;BME280;44948;55.046;73.266;2022-08-19T00:59:35;100870.84;;;9.16;67.62
59168;BME280;44948;55.046;73.266;2022-08-19T01:01:19;100858.88;;;9.12;68.43
59168;BME280;44948;55.046;73.266;2022-08-19T01:03:08;100863.91;;;9.15;67.88
59168;BME280;44948;55.046;73.266;2022-08-19T01:04:51;100864.50;;;9.20;68.77
59168;BME280;44948;55.046;73.266;2022-08-19T01:06:34;100868.69;;;9.24;68.61
59168;BME280;44948;55.046;73.266;2022-08-19T01:08:18;100865.91;;;9.28;68.45
59168;BME280;44948;55.046;73.266;2022-08-19T01:10:03;100861.41;;;9.30;68.24
59168;BME280;44948;55.046;73.266;2022-08-19T01:11:46;100823.91;;;9.13;67.92
59168;BME280;44948;55.046;73.266;2022-08-19T01:13:32;100834.38;;;9.13;68.02
59168;BME280;44948;55.046;73.266;2022-08-19T01:15:19;100813.28;;;9.01;68.11
59168;BME280;44948;55.046;73.266;2022-08-19T01:17:04;100847.75;;;9.24;68.44
59168;BME280;44948;55.046;73.266;2022-08-19T01:18:47;100831.50;;;9.18;68.30
59168;BME280;44948;55.046;73.266;2022-08-19T01:20:30;100862.09;;;9.33;67.65
59168;BME280;44948;55.046;73.266;2022-08-19T01:22:34;100853.53;;;9.14;67.98
59168;BME280;44948;55.046;73.266;2022-08-19T01:24:24;100842.81;;;9.18;68.56
59168;BME280;44948;55.046;73.266;2022-08-19T01:26:07;100825.03;;;9.09;68.66
59168;BME280;44948;55.046;73.266;2022-08-19T01:27:55;100858.81;;;9.30;68.07
59168;BME280;44948;55.046;73.266;2022-08-19T01:29:40;100840.94;;;9.20;67.98
59168;BME280;44948;55.046;73.266;2022-08-19T01:31:27;100849.25;;;9.29;68.50
59168;BME280;44948;55.046;73.266;2022-08-19T01:33:16;100858.97;;;9.27;68.33
59168;BME280;44948;55.046;73.266;2022-08-19T01:35:03;100823.91;;;9.13;67.91
59168;BME280;44948;55.046;73.266;2022-08-19T01:36:47;100756.19;;;8.61;68.88
59168;BME280;44948;55.046;73.266;2022-08-19T01:38:38;100812.94;;;9.07;68.63
59168;BME280;44948;55.046;73.266;2022-08-19T01:40:25;100743.09;;;8.61;68.67
59168;BME280;44948;55.046;73.266;2022-08-19T01:42:13;100834.69;;;9.07;68.66
59168;BME280;44948;55.046;73.266;2022-08-19T01:43:58;100845.59;;;9.15;68.19
59168;BME280;44948;55.046;73.266;2022-08-19T01:45:40;100859.91;;;9.26;68.73
59168;BME280;44948;55.046;73.266;2022-08-19T01:47:23;100848.97;;;9.17;68.95
59168;BME280;44948;55.046;73.266;2022-08-19T01:49:09;100849.91;;;9.16;68.96
59168;BME280;44948;55.046;73.266;2022-08-19T01:50:52;100869.16;;;9.15;69.07
59168;BME280;44948;55.046;73.266;2022-08-19T01:52:42;100840.72;;;9.09;68.97
59168;BME280;44948;55.046;73.266;2022-08-19T01:54:25;100807.72;;;8.91;68.99
59168;BME280;44948;55.046;73.266;2022-08-19T01:56:10;100852.28;;;9.21;69.22
59168;BME280;44948;55.046;73.266;2022-08-19T01:57:57;100836.81;;;9.16;68.79
59168;BME280;44948;55.046;73.266;2022-08-19T01:59:41;100826.84;;;9.07;69.33
59168;BME280;44948;55.046;73.266;2022-08-19T02:01:25;100708.94;;;8.33;69.51
59168;BME280;44948;55.046;73.266;2022-08-19T02:03:07;100850.09;;;9.13;69.53
59168;BME280;44948;55.046;73.266;2022-08-19T02:04:52;100848.03;;;9.18;69.52
59168;BME280;44948;55.046;73.266;2022-08-19T02:06:36;100840.88;;;9.22;69.34
59168;BME280;44948;55.046;73.266;2022-08-19T02:08:18;100846.81;;;9.26;69.05
59168;BME280;44948;55.046;73.266;2022-08-19T02:10:09;100775.63;;;8.87;68.69
59168;BME280;44948;55.046;73.266;2022-08-19T02:11:53;100844.59;;;9.34;68.98
59168;BME280;44948;55.046;73.266;2022-08-19T02:13:38;100846.38;;;9.33;68.78
59168;BME280;44948;55.046;73.266;2022-08-19T02:15:23;100835.25;;;9.30;69.19
59168;BME280;44948;55.046;73.266;2022-08-19T02:17:07;100821.88;;;9.18;69.09
59168;BME280;44948;55.046;73.266;2022-08-19T02:18:50;100837.88;;;9.30;68.86
59168;BME280;44948;55.046;73.266;2022-08-19T02:20:32;100743.94;;;8.78;68.68
59168;BME280;44948;55.046;73.266;2022-08-19T02:22:15;100847.97;;;9.36;69.11
59168;BME280;44948;55.046;73.266;2022-08-19T02:24:00;100847.03;;;9.37;68.73
59168;BME280;44948;55.046;73.266;2022-08-19T02:25:45;100845.03;;;9.42;68.38
59168;BME280;44948;55.046;73.266;2022-08-19T02:27:31;100700.25;;;8.48;68.43
59168;BME280;44948;55.046;73.266;2022-08-19T02:29:15;100847.94;;;9.51;68.47
59168;BME280;44948;55.046;73.266;2022-08-19T02:30:57;100815.63;;;9.37;68.42
59168;BME280;44948;55.046;73.266;2022-08-19T02:32:40;100788.59;;;9.20;68.75
59168;BME280;44948;55.046;73.266;2022-08-19T02:34:23;100827.13;;;9.34;68.23
59168;BME280;44948;55.046;73.266;2022-08-19T02:36:08;100814.03;;;9.34;68.23
59168;BME280;44948;55.046;73.266;2022-08-19T02:37:50;100844.50;;;9.51;68.08
59168;BME280;44948;55.046;73.266;2022-08-19T02:39:51;100702.38;;;8.42;67.81
59168;BME280;44948;55.046;73.266;2022-08-19T02:41:34;100858.34;;;9.53;67.64
59168;BME280;44948;55.046;73.266;2022-08-19T02:43:16;100860.34;;;9.64;68.10
59168;BME280;44948;55.046;73.266;2022-08-19T02:44:58;100686.25;;;8.49;67.85
59168;BME280;44948;55.046;73.266;2022-08-19T02:46:41;100851.47;;;9.66;67.94
59168;BME280;44948;55.046;73.266;2022-08-19T02:48:25;100840.75;;;9.55;67.68
59168;BME280;44948;55.046;73.266;2022-08-19T02:50:13;100857.47;;;9.68;68.26
59168;BME280;44948;55.046;73.266;2022-08-19T02:51:58;100856.53;;;9.69;67.90
59168;BME280;44948;55.046;73.266;2022-08-19T02:53:41;100854.44;;;9.60;67.85
59168;BME280;44948;55.046;73.266;2022-08-19T02:55:26;100640.41;;;8.28;67.85
59168;BME280;44948;55.046;73.266;2022-08-19T02:57:08;100675.31;;;8.58;67.65
59168;BME280;44948;55.046;73.266;2022-08-19T02:58:51;100747.56;;;8.91;67.43
59168;BME280;44948;55.046;73.266;2022-08-19T03:00:33;100860.44;;;9.62;67.60
59168;BME280;44948;55.046;73.266;2022-08-19T03:02:16;100859.13;;;9.69;67.81
59168;BME280;44948;55.046;73.266;2022-08-19T03:04:03;100858.97;;;9.72;67.45
59168;BME280;44948;55.046;73.266;2022-08-19T03:05:46;100850.16;;;9.73;67.33
59168;BME280;44948;55.046;73.266;2022-08-19T03:07:32;100853.38;;;9.78;67.56
59168;BME280;44948;55.046;73.266;2022-08-19T03:09:16;100829.66;;;9.66;67.07
59168;BME280;44948;55.046;73.266;2022-08-19T03:11:01;100855.91;;;9.80;67.32
59168;BME280;44948;55.046;73.266;2022-08-19T03:12:43;100830.75;;;9.77;67.55
59168;BME280;44948;55.046;73.266;2022-08-19T03:14:30;100764.84;;;9.25;66.78
59168;BME280;44948;55.046;73.266;2022-08-19T03:16:13;100855.13;;;9.94;67.08
59168;BME280;44948;55.046;73.266;2022-08-19T03:17:58;100750.72;;;9.28;66.76
59168;BME280;44948;55.046;73.266;2022-08-19T03:19:43;100860.34;;;9.94;66.88
59168;BME280;44948;55.046;73.266;2022-08-19T03:21:27;100704.94;;;8.89;67.17
59168;BME280;44948;55.046;73.266;2022-08-19T03:23:11;100859.22;;;9.98;66.90
59168;BME280;44948;55.046;73.266;2022-08-19T03:24:58;100851.06;;;9.88;66.73
59168;BME280;44948;55.046;73.266;2022-08-19T03:26:47;100834.22;;;9.78;66.70
59168;BME280;44948;55.046;73.266;2022-08-19T03:28:33;100863.53;;;9.99;66.86
59168;BME280;44948;55.046;73.266;2022-08-19T03:30:22;100841.41;;;9.89;66.73
59168;BME280;44948;55.046;73.266;2022-08-19T03:32:05;100855.66;;;9.99;66.49
59168;BME280;44948;55.046;73.266;2022-08-19T03:33:48;100859.03;;;10.01;66.57
59168;BME280;44948;55.046;73.266;2022-08-19T03:35:31;100858.22;;;9.70;67.45
59168;BME280;44948;55.046;73.266;2022-08-19T03:37:13;100771.72;;;9.42;67.10
59168;BME280;44948;55.046;73.266;2022-08-19T03:38:58;100855.66;;;9.99;67.19
59168;BME280;44948;55.046;73.266;2022-08-19T03:40:41;100867.47;;;10.06;67.18
59168;BME280;44948;55.046;73.266;2022-08-19T03:42:24;100853.28;;;10.10;66.80
59168;BME280;44948;55.046;73.266;2022-08-19T03:44:08;100843.78;;;10.07;66.57
59168;BME280;44948;55.046;73.266;2022-08-19T03:46:09;100857.47;;;10.12;66.37
59168;BME280;44948;55.046;73.266;2022-08-19T03:47:52;100815.03;;;9.92;66.68
59168;BME280;44948;55.046;73.266;2022-08-19T03:49:35;100865.06;;;10.17;66.43
59168;BME280;44948;55.046;73.266;2022-08-19T03:51:20;100853.00;;;10.14;66.32
59168;BME280;44948;55.046;73.266;2022-08-19T03:53:06;100673.53;;;8.89;66.77
59168;BME280;44948;55.046;73.266;2022-08-19T03:54:50;100870.13;;;10.20;66.09
59168;BME280;44948;55.046;73.266;2022-08-19T03:56:37;100815.44;;;10.00;66.28
59168;BME280;44948;55.046;73.266;2022-08-19T03:58:20;100825.63;;;10.04;66.09
59168;BME280;44948;55.046;73.266;2022-08-19T04:00:06;100853.28;;;10.38;65.67
59168;BME280;44948;55.046;73.266;2022-08-19T04:01:57;100852.06;;;10.30;65.49
59168;BME280;44948;55.046;73.266;2022-08-19T04:03:48;100831.84;;;10.18;65.73
59168;BME280;44948;55.046;73.266;2022-08-19T04:05:34;100807.09;;;10.22;65.69
59168;BME280;44948;55.046;73.266;2022-08-19T04:07:16;100739.63;;;9.82;65.31
59168;BME280;44948;55.046;73.266;2022-08-19T04:09:08;100722.75;;;9.72;65.54
59168;BME280;44948;55.046;73.266;2022-08-19T04:10:50;100598.09;;;8.97;65.53
59168;BME280;44948;55.046;73.266;2022-08-19T04:12:36;100709.19;;;9.66;65.19
59168;BME280;44948;55.046;73.266;2022-08-19T04:14:21;100846.56;;;10.63;64.98
59168;BME280;44948;55.046;73.266;2022-08-19T04:16:06;100739.78;;;10.08;64.68
59168;BME280;44948;55.046;73.266;2022-08-19T04:17:49;100831.06;;;10.72;64.57
59168;BME280;44948;55.046;73.266;2022-08-19T04:19:32;100865.69;;;10.79;64.41
59168;BME280;44948;55.046;73.266;2022-08-19T04:21:22;100843.75;;;10.80;64.04
59168;BME280;44948;55.046;73.266;2022-08-19T04:23:12;100837.91;;;10.89;64.37
59168;BME280;44948;55.046;73.266;2022-08-19T04:25:00;100847.84;;;10.98;63.83
59168;BME280;44948;55.046;73.266;2022-08-19T04:26:44;100836.03;;;10.91;63.82
59168;BME280;44948;55.046;73.266;2022-08-19T04:28:29;100774.97;;;10.61;63.74
59168;BME280;44948;55.046;73.266;2022-08-19T04:30:13;100855.97;;;11.08;63.65
59168;BME280;44948;55.046;73.266;2022-08-19T04:32:01;100759.41;;;10.58;63.66
59168;BME280;44948;55.046;73.266;2022-08-19T04:33:50;100780.94;;;10.77;63.54
59168;BME280;44948;55.046;73.266;2022-08-19T04:35:41;100851.91;;;11.17;62.69
59168;BME280;44948;55.046;73.266;2022-08-19T04:37:23;100769.34;;;10.67;63.57
59168;BME280;44948;55.046;73.266;2022-08-19T04:39:14;100858.66;;;11.21;63.01
59168;BME280;44948;55.046;73.266;2022-08-19T04:41:03;100857.97;;;11.31;62.90
59168;BME280;44948;55.046;73.266;2022-08-19T04:43:07;100858.63;;;11.35;62.66
59168;BME280;44948;55.046;73.266;2022-08-19T04:44:54;100850.00;;;11.33;63.06
59168;BME280;44948;55.046;73.266;2022-08-19T04:46:37;100856.13;;;11.46;62.66
59168;BME280;44948;55.046;73.266;2022-08-19T04:48:19;100788.22;;;11.00;62.21
59168;BME280;44948;55.046;73.266;2022-08-19T04:50:10;100820.69;;;11.39;62.26
59168;BME280;44948;55.046;73.266;2022-08-19T04:51:54;100782.44;;;11.35;62.18
59168;BME280;44948;55.046;73.266;2022-08-19T04:53:41;100610.84;;;10.44;61.40
59168;BME280;44948;55.046;73.266;2022-08-19T04:55:27;100706.69;;;11.16;61.26
59168;BME280;44948;55.046;73.266;2022-08-19T04:57:12;100773.06;;;11.83;60.55
59168;BME280;44948;55.046;73.266;2022-08-19T04:59:00;100819.06;;;12.29;60.51
59168;BME280;44948;55.046;73.266;2022-08-19T05:00:49;100810.41;;;12.39;60.64
59168;BME280;44948;55.046;73.266;2022-08-19T05:02:35;100759.00;;;12.22;60.77
59168;BME280;44948;55.046;73.266;2022-08-19T05:04:22;100769.72;;;12.45;59.48
59168;BME280;44948;55.046;73.266;2022-08-19T05:06:12;100823.31;;;12.80;58.57
59168;BME280;44948;55.046;73.266;2022-08-19T05:08:01;100805.03;;;12.66;58.84
59168;BME280;44948;55.046;73.266;2022-08-19T05:09:49;100669.84;;;11.81;58.53
59168;BME280;44948;55.046;73.266;2022-08-19T05:11:35;100759.19;;;12.45;58.46
59168;BME280;44948;55.046;73.266;2022-08-19T05:13:26;100788.06;;;12.58;59.10
59168;BME280;44948;55.046;73.266;2022-08-19T05:15:19;100769.03;;;12.54;58.14
59168;BME280;44948;55.046;73.266;2022-08-19T05:17:04;100758.97;;;12.48;57.98
59168;BME280;44948;55.046;73.266;2022-08-19T05:18:55;100790.03;;;12.79;58.48
59168;BME280;44948;55.046;73.266;2022-08-19T05:21:17;100804.94;;;12.92;58.55
59168;BME280;44948;55.046;73.266;2022-08-19T05:23:20;100732.22;;;12.54;57.44
59168;BME280;44948;55.046;73.266;2022-08-19T05:25:09;100821.66;;;13.27;57.58
59168;BME280;44948;55.046;73.266;2022-08-19T05:26:55;100818.13;;;13.39;57.12
59168;BME280;44948;55.046;73.266;2022-08-19T05:28:40;100669.75;;;12.45;56.67
59168;BME280;44948;55.046;73.266;2022-08-19T05:30:23;100693.16;;;12.61;56.70
59168;BME280;44948;55.046;73.266;2022-08-19T05:32:06;100815.34;;;13.54;57.00
59168;BME280;44948;55.046;73.266;2022-08-19T05:33:52;100741.13;;;12.88;56.18
59168;BME280;44948;55.046;73.266;2022-08-19T05:35:38;100776.09;;;12.90;56.03
59168;BME280;44948;55.046;73.266;2022-08-19T05:37:23;100776.16;;;12.77;56.83
59168;BME280;44948;55.046;73.266;2022-08-19T05:39:11;100811.50;;;13.10;56.36
59168;BME280;44948;55.046;73.266;2022-08-19T05:40:54;100806.31;;;13.21;56.27
59168;BME280;44948;55.046;73.266;2022-08-19T05:42:40;100818.75;;;13.19;56.33
59168;BME280;44948;55.046;73.266;2022-08-19T05:44:24;100797.44;;;13.22;56.25
59168;BME280;44948;55.046;73.266;2022-08-19T05:46:07;100796.72;;;13.20;56.66
59168;BME280;44948;55.046;73.266;2022-08-19T05:47:50;100792.63;;;13.16;56.13
59168;BME280;44948;55.046;73.266;2022-08-19T05:49:37;100799.69;;;13.39;56.24
59168;BME280;44948;55.046;73.266;2022-08-19T05:51:20;100628.25;;;12.48;56.26
59168;BME280;44948;55.046;73.266;2022-08-19T05:53:07;100654.84;;;12.80;55.83
59168;BME280;44948;55.046;73.266;2022-08-19T05:54:50;100615.13;;;12.60;55.13
59168;BME280;44948;55.046;73.266;2022-08-19T05:56:43;100781.97;;;13.77;55.10
59168;BME280;44948;55.046;73.266;2022-08-19T05:58:25;100762.91;;;13.62;54.84
59168;BME280;44948;55.046;73.266;2022-08-19T06:00:08;100752.81;;;13.56;55.33
59168;BME280;44948;55.046;73.266;2022-08-19T06:01:54;100785.47;;;13.88;55.62
59168;BME280;44948;55.046;73.266;2022-08-19T06:03:48;100653.19;;;13.26;55.68
59168;BME280;44948;55.046;73.266;2022-08-19T06:05:31;100750.28;;;14.12;55.31
59168;BME280;44948;55.046;73.266;2022-08-19T06:07:14;100702.31;;;13.95;54.78
59168;BME280;44948;55.046;73.266;2022-08-19T06:09:07;100769.53;;;14.57;55.02
59168;BME280;44948;55.046;73.266;2022-08-19T06:10:53;100777.59;;;14.55;54.38
59168;BME280;44948;55.046;73.266;2022-08-19T06:12:37;100651.75;;;13.79;54.10
59168;BME280;44948;55.046;73.266;2022-08-19T06:14:24;100777.34;;;14.70;54.12
59168;BME280;44948;55.046;73.266;2022-08-19T06:16:06;100640.00;;;13.83;53.79
59168;BME280;44948;55.046;73.266;2022-08-19T06:17:49;100704.44;;;14.24;53.93
59168;BME280;44948;55.046;73.266;2022-08-19T06:19:35;100758.63;;;14.61;53.66
59168;BME280;44948;55.046;73.266;2022-08-19T06:21:22;100732.25;;;14.61;53.25
59168;BME280;44948;55.046;73.266;2022-08-19T06:23:04;100626.09;;;13.81;53.07
59168;BME280;44948;55.046;73.266;2022-08-19T06:24:55;100735.84;;;14.72;53.04
59168;BME280;44948;55.046;73.266;2022-08-19T06:26:40;100698.19;;;14.47;52.93
59168;BME280;44948;55.046;73.266;2022-08-19T06:28:29;100607.13;;;13.76;53.01
59168;BME280;44948;55.046;73.266;2022-08-19T06:30:14;100749.53;;;14.66;52.90
59168;BME280;44948;55.046;73.266;2022-08-19T06:32:03;100700.59;;;14.39;53.03
59168;BME280;44948;55.046;73.266;2022-08-19T06:33:51;100749.88;;;14.72;53.16
59168;BME280;44948;55.046;73.266;2022-08-19T06:35:39;100618.66;;;13.86;53.43
59168;BME280;44948;55.046;73.266;2022-08-19T06:37:25;100623.19;;;13.84;53.27
59168;BME280;44948;55.046;73.266;2022-08-19T06:39:13;100751.66;;;14.72;53.36
59168;BME280;44948;55.046;73.266;2022-08-19T06:41:08;100746.63;;;14.80;53.97
59168;BME280;44948;55.046;73.266;2022-08-19T06:42:54;100745.44;;;14.73;54.13
59168;BME280;44948;55.046;73.266;2022-08-19T06:44:47;100693.06;;;14.23;54.34
59168;BME280;44948;55.046;73.266;2022-08-19T06:46:30;100693.41;;;14.08;54.23
59168;BME280;44948;55.046;73.266;2022-08-19T06:48:13;100752.28;;;14.42;54.49
59168;BME280;44948;55.046;73.266;2022-08-19T06:49:56;100734.91;;;14.28;54.38
59168;BME280;44948;55.046;73.266;2022-08-19T06:51:50;100713.56;;;14.09;54.98
59168;BME280;44948;55.046;73.266;2022-08-19T06:53:36;100753.59;;;14.25;55.27
59168;BME280;44948;55.046;73.266;2022-08-19T06:55:21;100754.56;;;14.24;55.62
59168;BME280;44948;55.046;73.266;2022-08-19T06:57:07;100741.16;;;14.16;55.23
59168;BME280;44948;55.046;73.266;2022-08-19T06:58:55;100753.13;;;14.20;55.32
59168;BME280;44948;55.046;73.266;2022-08-19T07:00:37;100755.06;;;14.18;54.94
59168;BME280;44948;55.046;73.266;2022-08-19T07:02:20;100630.69;;;13.33;55.44
59168;BME280;44948;55.046;73.266;2022-08-19T07:04:05;100738.41;;;13.95;55.45
59168;BME280;44948;55.046;73.266;2022-08-19T07:05:51;100603.22;;;13.02;55.91
59168;BME280;44948;55.046;73.266;2022-08-19T07:07:34;100637.19;;;13.05;55.71
59168;BME280;44948;55.046;73.266;2022-08-19T07:09:22;100564.84;;;12.40;56.31
59168;BME280;44948;55.046;73.266;2022-08-19T07:11:08;100752.56;;;13.48;56.81
59168;BME280;44948;55.046;73.266;2022-08-19T07:12:54;100733.41;;;13.46;56.89
59168;BME280;44948;55.046;73.266;2022-08-19T07:14:36;100728.06;;;13.34;57.38
59168;BME280;44948;55.046;73.266;2022-08-19T07:16:25;100729.97;;;13.32;57.60
59168;BME280;44948;55.046;73.266;2022-08-19T07:18:10;100745.06;;;13.41;57.74
59168;BME280;44948;55.046;73.266;2022-08-19T07:19:55;100575.53;;;12.26;57.79
59168;BME280;44948;55.046;73.266;2022-08-19T07:21:38;100747.09;;;13.38;57.62
59168;BME280;44948;55.046;73.266;2022-08-19T07:23:24;100741.94;;;13.36;57.67
59168;BME280;44948;55.046;73.266;2022-08-19T07:25:09;100744.22;;;13.41;58.05
59168;BME280;44948;55.046;73.266;2022-08-19T07:26:54;100743.38;;;13.40;57.87
59168;BME280;44948;55.046;73.266;2022-08-19T07:28:39;100743.34;;;13.53;57.88
59168;BME280;44948;55.046;73.266;2022-08-19T07:30:27;100728.84;;;13.48;58.51
59168;BME280;44948;55.046;73.266;2022-08-19T07:32:09;100666.44;;;13.13;57.83
59168;BME280;44948;55.046;73.266;2022-08-19T07:33:55;100747.84;;;13.86;58.21
59168;BME280;44948;55.046;73.266;2022-08-19T07:35:41;100753.34;;;13.94;58.26
59168;BME280;44948;55.046;73.266;2022-08-19T07:37:26;100758.03;;;13.91;57.44
59168;BME280;44948;55.046;73.266;2022-08-19T07:39:19;100671.41;;;13.29;57.06
59168;BME280;44948;55.046;73.266;2022-08-19T07:41:02;100740.88;;;13.74;56.90
59168;BME280;44948;55.046;73.266;2022-08-19T07:42:50;100748.81;;;13.85;56.84
59168;BME280;44948;55.046;73.266;2022-08-19T07:44:34;100751.16;;;13.77;56.45
59168;BME280;44948;55.046;73.266;2022-08-19T07:46:18;100754.66;;;13.66;57.20
59168;BME280;44948;55.046;73.266;2022-08-19T07:48:02;100750.91;;;13.58;57.51
59168;BME280;44948;55.046;73.266;2022-08-19T07:49:47;100750.75;;;13.24;57.95
59168;BME280;44948;55.046;73.266;2022-08-19T07:51:30;100747.34;;;13.35;58.16
59168;BME280;44948;55.046;73.266;2022-08-19T07:53:14;100639.28;;;12.77;58.24
59168;BME280;44948;55.046;73.266;2022-08-19T07:54:59;100744.66;;;13.48;58.37
59168;BME280;44948;55.046;73.266;2022-08-19T07:57:01;100754.72;;;13.54;58.27
59168;BME280;44948;55.046;73.266;2022-08-19T07:58:49;100740.03;;;13.38;57.97
59168;BME280;44948;55.046;73.266;2022-08-19T08:00:34;100566.38;;;12.32;58.74
59168;BME280;44948;55.046;73.266;2022-08-19T08:02:17;100746.38;;;13.36;58.50
59168;BME280;44948;55.046;73.266;2022-08-19T08:04:01;100713.75;;;13.26;58.74
59168;BME280;44948;55.046;73.266;2022-08-19T08:06:02;100591.38;;;12.61;58.52
59168;BME280;44948;55.046;73.266;2022-08-19T08:08:05;100734.84;;;13.61;58.17
59168;BME280;44948;55.046;73.266;2022-08-19T08:10:28;100585.63;;;12.67;58.17
59168;BME280;44948;55.046;73.266;2022-08-19T08:12:29;100734.88;;;13.72;59.03
59168;BME280;44948;55.046;73.266;2022-08-19T08:14:27;100724.34;;;13.72;58.50
59168;BME280;44948;55.046;73.266;2022-08-19T08:16:13;100745.91;;;13.77;58.35
59168;BME280;44948;55.046;73.266;2022-08-19T08:17:55;100738.00;;;13.77;58.26
59168;BME280;44948;55.046;73.266;2022-08-19T08:19:43;100725.53;;;13.68;58.69
59168;BME280;44948;55.046;73.266;2022-08-19T08:21:26;100737.28;;;13.75;58.04
59168;BME280;44948;55.046;73.266;2022-08-19T08:23:08;100726.72;;;13.75;58.62
59168;BME280;44948;55.046;73.266;2022-08-19T08:25:19;100741.81;;;13.62;58.34
59168;BME280;44948;55.046;73.266;2022-08-19T08:27:02;100556.72;;;12.43;58.49
59168;BME280;44948;55.046;73.266;2022-08-19T08:28:48;100597.59;;;12.71;58.90
59168;BME280;44948;55.046;73.266;2022-08-19T08:30:31;100561.38;;;12.40;58.88
59168;BME280;44948;55.046;73.266;2022-08-19T08:32:18;100573.19;;;12.34;59.42
59168;BME280;44948;55.046;73.266;2022-08-19T08:34:01;100728.78;;;13.36;59.74
59168;BME280;44948;55.046;73.266;2022-08-19T08:35:46;100722.09;;;13.43;59.33
59168;BME280;44948;55.046;73.266;2022-08-19T08:37:29;100494.66;;;11.93;59.61
59168;BME280;44948;55.046;73.266;2022-08-19T08:39:18;100668.63;;;13.19;59.51
59168;BME280;44948;55.046;73.266;2022-08-19T08:43:25;100725.66;;;13.42;59.77
59168;BME280;44948;55.046;73.266;2022-08-19T08:45:13;100734.94;;;13.48;59.48
59168;BME280;44948;55.046;73.266;2022-08-19T08:47:04;100626.44;;;13.08;59.71
59168;BME280;44948;55.046;73.266;2022-08-19T08:49:20;100536.00;;;12.63;59.48
59168;BME280;44948;55.046;73.266;2022-08-19T08:51:03;100710.06;;;13.74;59.81
59168;BME280;44948;55.046;73.266;2022-08-19T08:52:52;100708.28;;;13.64;59.14
59168;BME280;44948;55.046;73.266;2022-08-19T08:54:45;100707.19;;;13.66;59.20
59168;BME280;44948;55.046;73.266;2022-08-19T08:56:28;100511.13;;;12.32;59.45
59168;BME280;44948;55.046;73.266;2022-08-19T08:58:31;100677.50;;;13.29;59.37
59168;BME280;44948;55.046;73.266;2022-08-19T09:02:14;100684.16;;;13.46;59.96
59168;BME280;44948;55.046;73.266;2022-08-19T09:04:05;100672.31;;;13.52;60.00
59168;BME280;44948;55.046;73.266;2022-08-19T09:09:40;100722.28;;;13.64;59.91
59168;BME280;44948;55.046;73.266;2022-08-19T09:11:47;100708.00;;;13.44;60.54
59168;BME280;44948;55.046;73.266;2022-08-19T09:13:39;100712.06;;;13.60;60.58
59168;BME280;44948;55.046;73.266;2022-08-19T09:15:45;100719.50;;;13.55;61.21
59168;BME280;44948;55.046;73.266;2022-08-19T09:17:31;100707.03;;;13.57;61.21
59168;BME280;44948;55.046;73.266;2022-08-19T09:19:16;100687.81;;;13.32;61.75
59168;BME280;44948;55.046;73.266;2022-08-19T09:20:59;100711.72;;;13.18;62.10